createdAt,value
2023-05-03T00:01:17.599Z,12.97
2023-05-03T00:03:53.007Z,14.86
2023-05-03T00:06:25.947Z,14.00
2023-05-03T00:08:57.920Z,14.06
2023-05-03T00:11:30.592Z,14.83
2023-05-03T00:14:02.698Z,13.66
2023-05-03T00:16:35.606Z,14.12
2023-05-03T00:19:10.707Z,14.10
2023-05-03T00:21:50.535Z,14.86
2023-05-03T00:24:22.469Z,14.73
2023-05-03T00:26:55.444Z,13.21
2023-05-03T00:29:27.918Z,13.77
2023-05-03T00:32:00.655Z,13.82
2023-05-03T00:34:32.601Z,13.53
2023-05-03T00:37:06.097Z,13.55
2023-05-03T00:39:38.014Z,13.33
2023-05-03T00:42:10.809Z,12.58
2023-05-03T00:44:43.063Z,12.39
2023-05-03T00:47:17.152Z,12.73
2023-05-03T00:49:49.498Z,13.09
2023-05-03T00:52:22.147Z,13.05
2023-05-03T00:54:54.180Z,12.74
2023-05-03T00:57:28.863Z,13.53
2023-05-03T01:00:01.417Z,14.41
2023-05-03T01:02:34.749Z,14.48
2023-05-03T01:05:07.735Z,14.31
2023-05-03T01:07:56.380Z,14.88
2023-05-03T01:10:42.602Z,13.29
2023-05-03T01:13:19.788Z,12.69
2023-05-03T01:16:07.089Z,13.89
2023-05-03T01:18:44.573Z,14.14
2023-05-03T01:21:20.585Z,13.42
2023-05-03T01:24:14.662Z,13.52
2023-05-03T01:26:47.856Z,14.95
2023-05-03T01:29:20.929Z,14.00
2023-05-03T01:32:07.485Z,14.64
2023-05-03T01:35:06.062Z,14.46
2023-05-03T01:37:38.275Z,13.43
2023-05-03T01:40:13.398Z,13.11
2023-05-03T01:42:46.004Z,13.04
2023-05-03T01:45:20.694Z,12.40
2023-05-03T01:47:53.056Z,12.58
2023-05-03T01:50:25.105Z,13.05
2023-05-03T01:52:57.936Z,11.99
2023-05-03T01:55:29.823Z,13.96
2023-05-03T01:58:02.929Z,14.59
2023-05-03T02:00:35.525Z,13.76
2023-05-03T02:03:07.966Z,14.33
2023-05-03T02:05:40.388Z,14.09
2023-05-03T02:08:12.493Z,13.53
2023-05-03T02:10:45.389Z,12.80
2023-05-03T02:13:17.722Z,11.08
2023-05-03T02:15:50.637Z,10.15
2023-05-03T02:18:22.513Z,9.55
2023-05-03T02:20:58.138Z,9.48
2023-05-03T02:23:30.405Z,9.35
2023-05-03T02:26:03.329Z,9.14
2023-05-03T02:28:35.253Z,8.92
2023-05-03T02:31:09.241Z,8.89
2023-05-03T02:33:42.257Z,8.53
2023-05-03T02:36:14.997Z,8.40
2023-05-03T02:38:49.819Z,8.35
2023-05-03T02:41:24.086Z,8.37
2023-05-03T02:43:56.636Z,8.42
2023-05-03T02:46:32.007Z,8.54
2023-05-03T02:49:04.905Z,8.67
2023-05-03T02:51:38.142Z,8.72
2023-05-03T02:54:11.338Z,8.76
2023-05-03T02:56:44.557Z,8.77
2023-05-03T02:59:16.475Z,8.83
2023-05-03T03:01:51.675Z,8.76
2023-05-03T03:04:24.107Z,8.79
2023-05-03T03:06:57.518Z,8.75
2023-05-03T03:09:29.986Z,8.71
2023-05-03T03:12:04.825Z,8.68
2023-05-03T03:14:37.967Z,8.69
2023-05-03T03:17:11.620Z,8.67
2023-05-03T03:19:44.619Z,8.61
2023-05-03T03:22:18.158Z,8.51
2023-05-03T03:24:52.652Z,8.46
2023-05-03T03:27:25.189Z,8.41
2023-05-03T03:29:57.096Z,8.36
2023-05-03T03:32:30.613Z,8.42
2023-05-03T03:35:05.664Z,8.40
2023-05-03T03:37:40.380Z,8.37
2023-05-03T03:40:12.813Z,8.38
2023-05-03T03:42:46.303Z,8.40
2023-05-03T03:45:18.710Z,8.30
2023-05-03T03:47:53.582Z,9.50
2023-05-03T03:50:28.654Z,8.62
2023-05-03T03:53:01.908Z,8.46
2023-05-03T03:55:34.087Z,8.29
2023-05-03T03:58:07.134Z,8.24
2023-05-03T04:00:40.077Z,8.21
2023-05-03T04:03:19.304Z,8.16
2023-05-03T04:05:53.533Z,8.10
2023-05-03T04:08:27.445Z,7.96
2023-05-03T04:10:59.770Z,7.92
2023-05-03T04:13:32.740Z,7.94
2023-05-03T04:16:08.956Z,7.87
2023-05-03T04:18:43.060Z,7.82
2023-05-03T04:21:15.103Z,7.92
2023-05-03T04:23:48.682Z,7.94
2023-05-03T04:26:31.145Z,7.88
2023-05-03T04:29:20.396Z,7.87
2023-05-03T04:31:53.286Z,7.75
2023-05-03T04:34:26.321Z,7.77
2023-05-03T04:37:00.917Z,7.73
2023-05-03T04:39:34.194Z,7.78
2023-05-03T04:42:07.806Z,7.75
2023-05-03T04:44:40.722Z,7.68
2023-05-03T04:47:12.810Z,7.80
2023-05-03T04:49:47.582Z,7.62
2023-05-03T04:52:21.060Z,7.57
2023-05-03T04:54:54.765Z,7.62
2023-05-03T04:57:28.610Z,7.79
2023-05-03T05:00:03.524Z,7.77
2023-05-03T05:02:36.575Z,7.77
2023-05-03T05:05:11.509Z,8.00
2023-05-03T05:07:44.213Z,8.05
2023-05-03T05:10:17.513Z,8.05
2023-05-03T05:12:50.950Z,8.08
2023-05-03T05:15:23.460Z,8.22
2023-05-03T05:17:57.394Z,8.18
2023-05-03T05:20:29.882Z,8.19
2023-05-03T05:23:03.814Z,8.42
2023-05-03T05:25:37.110Z,8.46
2023-05-03T05:28:11.852Z,8.42
2023-05-03T05:30:45.037Z,8.39
2023-05-03T05:33:19.054Z,8.34
2023-05-03T05:35:53.050Z,8.29
2023-05-03T05:38:27.793Z,8.37
2023-05-03T05:41:04.579Z,8.41
2023-05-03T05:43:39.008Z,8.42
2023-05-03T05:46:14.236Z,8.41
2023-05-03T05:48:47.044Z,12.87
2023-05-03T05:51:20.926Z,13.77
2023-05-03T05:53:54.285Z,14.13
2023-05-03T05:56:26.585Z,14.57
2023-05-03T05:59:01.553Z,14.36
2023-05-03T06:01:34.355Z,11.26
2023-05-03T06:04:08.993Z,10.03
2023-05-03T06:06:42.047Z,9.37
2023-05-03T06:09:24.280Z,9.08
2023-05-03T06:12:03.898Z,8.88
2023-05-03T06:14:46.274Z,8.81
2023-05-03T06:17:25.548Z,8.80
2023-05-03T06:20:01.769Z,8.90
2023-05-03T06:22:35.322Z,8.93
2023-05-03T06:25:07.838Z,8.93
2023-05-03T06:27:42.575Z,9.04
2023-05-03T06:30:15.677Z,9.11
2023-05-03T06:32:49.029Z,9.16
2023-05-03T06:35:23.186Z,9.17
2023-05-03T06:37:56.044Z,9.22
2023-05-03T06:40:28.128Z,9.31
2023-05-03T06:43:02.370Z,9.46
2023-05-03T06:45:43.334Z,9.60
2023-05-03T06:48:18.480Z,9.59
2023-05-03T06:50:50.706Z,9.69
2023-05-03T06:53:23.966Z,9.77
2023-05-03T06:55:55.915Z,10.46
2023-05-03T06:58:29.141Z,11.28
2023-05-03T07:01:02.747Z,10.93
2023-05-03T07:03:40.123Z,10.79
2023-05-03T07:06:16.090Z,10.66
2023-05-03T07:08:50.410Z,10.57
2023-05-03T07:11:25.747Z,10.72
2023-05-03T07:13:58.821Z,10.86
2023-05-03T07:16:31.151Z,11.38
2023-05-03T07:19:04.996Z,11.61
2023-05-03T07:21:37.558Z,11.91
2023-05-03T07:24:12.766Z,12.76
2023-05-03T07:26:48.501Z,15.27
2023-05-03T07:29:22.243Z,17.00
2023-05-03T07:31:56.913Z,17.76
2023-05-03T07:34:28.919Z,18.03
2023-05-03T07:37:02.562Z,18.48
2023-05-03T07:39:35.125Z,18.65
2023-05-03T07:42:09.160Z,19.62
2023-05-03T07:44:41.125Z,18.94
2023-05-03T07:47:16.231Z,19.56
2023-05-03T07:49:50.769Z,19.36
2023-05-03T07:52:25.727Z,19.99
2023-05-03T07:54:59.554Z,20.31
2023-05-03T07:57:36.142Z,20.03
2023-05-03T08:00:10.948Z,21.31
2023-05-03T08:02:47.776Z,20.12
2023-05-03T08:08:36.535Z,20.13
2023-05-03T08:11:12.034Z,21.66
2023-05-03T08:13:43.922Z,19.93
2023-05-03T08:16:17.861Z,20.23
2023-05-03T08:18:50.459Z,21.95
2023-05-03T08:21:25.592Z,20.97
2023-05-03T08:23:58.560Z,20.89
2023-05-03T08:26:31.691Z,22.13
2023-05-03T08:29:05.092Z,21.46
2023-05-03T08:31:37.937Z,23.45
2023-05-03T08:34:12.451Z,22.52
2023-05-03T08:36:45.430Z,22.21
2023-05-03T08:39:18.804Z,22.06
2023-05-03T08:41:53.187Z,21.09
2023-05-03T08:44:30.114Z,23.12
2023-05-03T08:47:02.669Z,21.95
2023-05-03T08:49:38.376Z,20.28
2023-05-03T08:52:13.992Z,22.42
2023-05-03T08:54:47.502Z,21.61
2023-05-03T08:57:22.983Z,20.72
2023-05-03T09:00:00.681Z,21.31
2023-05-03T09:02:35.336Z,21.36
2023-05-03T09:05:16.551Z,21.23
2023-05-03T09:08:08.019Z,22.02
2023-05-03T09:10:42.651Z,24.08
2023-05-03T09:13:15.813Z,22.82
2023-05-03T09:15:57.774Z,22.32
2023-05-03T09:18:32.120Z,21.44
2023-05-03T09:21:06.730Z,21.98
2023-05-03T09:23:41.438Z,22.11
2023-05-03T09:26:31.385Z,22.27
2023-05-03T09:29:05.389Z,22.91
2023-05-03T09:31:58.768Z,22.80
2023-05-03T09:34:32.937Z,22.23
2023-05-03T09:37:04.931Z,22.52
2023-05-03T09:39:38.812Z,22.34
2023-05-03T09:42:17.355Z,22.51
2023-05-03T09:44:54.488Z,21.93
2023-05-03T09:47:31.798Z,21.67
2023-05-03T09:50:07.685Z,21.96
2023-05-03T09:52:40.338Z,22.70
2023-05-03T09:55:12.722Z,23.52
2023-05-03T09:57:48.052Z,22.99
2023-05-03T10:00:21.057Z,24.84
2023-05-03T10:02:58.206Z,24.45
2023-05-03T10:05:33.774Z,23.84
2023-05-03T10:08:06.430Z,22.53
2023-05-03T10:10:42.376Z,24.13
2023-05-03T10:13:15.146Z,23.31
2023-05-03T10:15:50.520Z,23.66
2023-05-03T10:18:26.367Z,22.60
2023-05-03T10:21:15.447Z,22.66
2023-05-03T10:24:14.158Z,22.94
2023-05-03T10:26:48.455Z,23.76
2023-05-03T10:29:35.981Z,23.77
2023-05-03T10:32:43.551Z,23.13
2023-05-03T10:35:17.325Z,24.49
2023-05-03T10:37:52.196Z,25.19
2023-05-03T10:40:24.490Z,23.96
2023-05-03T10:42:57.043Z,23.53
2023-05-03T10:45:29.599Z,23.59
2023-05-03T10:48:11.273Z,23.97
2023-05-03T10:50:43.712Z,23.88
2023-05-03T10:53:40.434Z,24.02
2023-05-03T10:56:15.610Z,23.32
2023-05-03T10:58:56.973Z,23.44
2023-05-03T11:01:29.850Z,23.64
2023-05-03T11:04:33.076Z,24.26
2023-05-03T11:07:05.074Z,23.65
2023-05-03T11:09:37.674Z,23.77
2023-05-03T11:12:12.361Z,24.06
2023-05-03T11:14:45.054Z,23.99
2023-05-03T11:17:17.207Z,23.61
2023-05-03T11:19:50.351Z,24.05
2023-05-03T11:22:22.283Z,23.80
2023-05-03T11:24:54.573Z,24.03
2023-05-03T11:27:26.566Z,23.76
2023-05-03T11:29:59.840Z,23.20
2023-05-03T11:32:32.767Z,23.81
2023-05-03T11:35:07.998Z,23.98
2023-05-03T11:37:39.944Z,23.77
2023-05-03T11:40:19.523Z,24.25
2023-05-03T11:42:58.366Z,24.05
2023-05-03T11:45:44.886Z,23.44
2023-05-03T11:48:17.650Z,23.36
2023-05-03T11:50:55.724Z,23.82
2023-05-03T11:53:27.866Z,24.84
2023-05-03T11:56:01.170Z,24.63
2023-05-03T11:58:33.166Z,25.14
2023-05-03T12:01:05.887Z,25.18
2023-05-03T12:03:37.883Z,24.52
2023-05-03T12:06:11.838Z,24.21
2023-05-03T12:08:45.168Z,24.53
2023-05-03T12:11:18.583Z,24.23
2023-05-03T12:13:59.973Z,24.46
2023-05-03T12:16:52.382Z,24.50
2023-05-03T12:19:33.439Z,24.55
2023-05-03T12:22:26.067Z,24.84
2023-05-03T12:24:59.297Z,23.28
2023-05-03T12:27:32.793Z,24.00
2023-05-03T12:30:07.991Z,24.70
2023-05-03T12:32:44.389Z,25.05
2023-05-03T12:35:20.971Z,24.57
2023-05-03T12:40:34.389Z,24.21
2023-05-03T12:43:07.804Z,24.10
2023-05-03T12:45:41.113Z,23.55
2023-05-03T12:48:14.289Z,23.60
2023-05-03T12:50:46.454Z,24.08
2023-05-03T12:53:19.675Z,24.39
2023-05-03T12:55:52.404Z,23.90
2023-05-03T12:58:49.836Z,24.35
2023-05-03T13:02:05.039Z,24.11
2023-05-03T13:06:58.081Z,23.83
2023-05-03T13:10:12.577Z,23.38
2023-05-03T13:12:25.578Z,23.70
2023-05-03T13:14:58.300Z,23.94
2023-05-03T13:17:31.606Z,23.22
2023-05-03T13:20:08.542Z,22.82
2023-05-03T13:22:40.525Z,23.02
2023-05-03T13:25:13.659Z,23.15
2023-05-03T13:27:47.045Z,23.49
2023-05-03T13:30:26.108Z,23.49
2023-05-03T13:32:58.464Z,22.65
2023-05-03T13:35:31.257Z,23.24
2023-05-03T13:38:03.145Z,23.30
2023-05-03T13:40:35.498Z,23.83
2023-05-03T13:43:07.681Z,24.27
2023-05-03T13:45:40.066Z,23.69
2023-05-03T13:48:17.585Z,23.99
2023-05-03T13:50:51.220Z,24.02
2023-05-03T13:53:23.266Z,23.16
2023-05-03T13:55:56.154Z,22.74
2023-05-03T13:58:28.030Z,23.32
2023-05-03T14:01:00.391Z,23.24
2023-05-03T14:03:33.948Z,23.29
2023-05-03T14:06:08.667Z,23.50
2023-05-03T14:08:41.516Z,23.77
2023-05-03T14:11:18.906Z,24.02
2023-05-03T14:13:56.846Z,24.07
2023-05-03T14:16:40.756Z,24.23
2023-05-03T14:19:14.987Z,24.15
2023-05-03T14:21:50.606Z,24.43
2023-05-03T14:24:22.886Z,24.42
2023-05-03T14:26:55.634Z,24.42
2023-05-03T14:29:27.608Z,23.88
2023-05-03T14:32:00.051Z,24.06
2023-05-03T14:34:32.496Z,24.05
2023-05-03T14:37:04.880Z,24.45
2023-05-03T14:39:36.825Z,24.03
2023-05-03T14:42:11.142Z,23.91
2023-05-03T14:44:43.023Z,24.19
2023-05-03T14:47:15.458Z,24.08
2023-05-03T14:49:47.406Z,24.06
2023-05-03T14:52:19.751Z,24.00
2023-05-03T14:54:52.630Z,23.56
2023-05-03T14:57:25.009Z,23.51
2023-05-03T14:59:56.966Z,23.60
2023-05-03T15:02:29.511Z,23.50
2023-05-03T15:05:03.588Z,23.27
2023-05-03T15:07:35.921Z,23.40
2023-05-03T15:10:10.003Z,23.40
2023-05-03T15:12:42.583Z,23.47
2023-05-03T15:15:15.785Z,23.74
2023-05-03T15:17:48.344Z,23.70
2023-05-03T15:20:20.453Z,23.56
2023-05-03T15:22:52.857Z,23.82
2023-05-03T15:25:24.735Z,23.90
2023-05-03T15:27:57.487Z,23.99
2023-05-03T15:30:29.425Z,23.81
2023-05-03T15:33:02.429Z,23.32
2023-05-03T15:35:39.120Z,23.31
2023-05-03T15:38:11.440Z,23.71
2023-05-03T15:40:43.553Z,23.51
2023-05-03T15:43:15.877Z,23.56
2023-05-03T15:45:47.878Z,23.44
2023-05-03T15:48:20.239Z,23.59
2023-05-03T15:50:52.334Z,23.78
2023-05-03T15:53:25.836Z,23.21
2023-05-03T15:55:58.218Z,23.23
2023-05-03T15:58:31.321Z,23.29
2023-05-03T16:01:04.086Z,23.52
2023-05-03T16:03:36.569Z,23.70
2023-05-03T16:06:09.526Z,23.29
2023-05-03T16:08:42.453Z,23.02
2023-05-03T16:11:15.031Z,23.11
2023-05-03T16:13:47.288Z,23.01
2023-05-03T16:16:19.234Z,23.12
2023-05-03T16:18:51.671Z,23.20
2023-05-03T16:21:23.595Z,23.18
2023-05-03T16:23:56.638Z,23.04
2023-05-03T16:26:28.779Z,23.12
2023-05-03T16:29:01.672Z,22.83
2023-05-03T16:31:33.636Z,22.87
2023-05-03T16:34:06.259Z,22.89
2023-05-03T16:36:48.261Z,22.78
2023-05-03T16:39:20.788Z,22.86
2023-05-03T16:41:52.846Z,22.87
2023-05-03T16:44:25.387Z,22.71
2023-05-03T16:46:57.357Z,22.77
2023-05-03T16:49:34.588Z,22.85
2023-05-03T16:52:06.732Z,23.00
2023-05-03T16:54:39.090Z,22.97
2023-05-03T16:57:10.995Z,22.41
2023-05-03T16:59:43.377Z,22.54
2023-05-03T17:02:15.350Z,22.74
2023-05-03T17:04:47.742Z,22.59
2023-05-03T17:07:20.024Z,22.32
2023-05-03T17:09:53.014Z,22.42
2023-05-03T17:12:25.392Z,22.06
2023-05-03T17:14:58.117Z,22.00
2023-05-03T17:17:32.554Z,22.07
2023-05-03T17:20:05.992Z,22.03
2023-05-03T17:22:38.132Z,22.05
2023-05-03T17:25:10.930Z,21.97
2023-05-03T17:27:43.907Z,21.86
2023-05-03T17:30:17.773Z,21.86
2023-05-03T17:32:51.549Z,21.72
2023-05-03T17:35:25.237Z,21.61
2023-05-03T17:37:58.130Z,21.53
2023-05-03T17:40:30.460Z,21.36
2023-05-03T17:43:02.599Z,21.35
2023-05-03T17:45:34.944Z,21.13
2023-05-03T17:48:07.450Z,21.08
2023-05-03T17:50:40.303Z,21.02
2023-05-03T17:53:12.256Z,20.90
2023-05-03T17:58:37.888Z,20.55
2023-05-03T18:01:11.370Z,20.33
2023-05-03T18:03:43.600Z,20.30
2023-05-03T18:06:16.729Z,20.26
2023-05-03T18:08:52.335Z,20.17
2023-05-03T18:11:26.346Z,20.14
2023-05-03T18:13:59.812Z,20.04
2023-05-03T18:16:33.129Z,19.95
2023-05-03T18:19:05.312Z,19.94
2023-05-03T18:21:39.306Z,19.88
2023-05-03T18:24:11.878Z,19.61
2023-05-03T18:26:45.005Z,19.63
2023-05-03T18:29:16.938Z,19.70
2023-05-03T18:31:50.852Z,19.50
2023-05-03T18:34:24.510Z,19.40
2023-05-03T18:36:56.850Z,19.22
2023-05-03T18:39:29.897Z,19.05
2023-05-03T18:42:01.814Z,18.92
2023-05-03T18:44:36.177Z,18.85
2023-05-03T18:47:10.223Z,18.55
2023-05-03T18:49:47.339Z,18.42
2023-05-03T18:52:23.207Z,18.24
2023-05-03T18:54:56.074Z,18.10
2023-05-03T18:57:28.332Z,18.11
2023-05-03T19:00:02.704Z,17.94
2023-05-03T19:02:35.992Z,17.83
2023-05-03T19:05:10.853Z,17.74
2023-05-03T19:07:48.147Z,17.71
2023-05-03T19:10:21.399Z,17.59
2023-05-03T19:12:53.719Z,17.50
2023-05-03T19:15:27.452Z,17.26
2023-05-03T19:17:59.889Z,17.17
2023-05-03T19:20:32.167Z,17.39
2023-05-03T19:23:05.593Z,17.36
2023-05-03T19:25:37.970Z,17.14
2023-05-03T19:28:12.160Z,17.04
2023-05-03T19:30:46.225Z,16.96
2023-05-03T19:33:20.370Z,16.84
2023-05-03T19:35:54.427Z,16.73
2023-05-03T19:38:28.372Z,16.68
2023-05-03T19:41:05.928Z,16.65
2023-05-03T19:44:00.214Z,16.59
2023-05-03T19:46:33.692Z,16.57
2023-05-03T19:49:07.527Z,16.46
2023-05-03T19:51:39.475Z,16.36
2023-05-03T19:54:12.947Z,16.42
2023-05-03T19:56:45.305Z,16.36
2023-05-03T19:59:18.634Z,16.35
2023-05-03T20:01:51.079Z,16.34
2023-05-03T20:04:24.887Z,16.16
2023-05-03T20:06:57.414Z,16.16
2023-05-03T20:09:30.547Z,16.11
2023-05-03T20:12:03.541Z,16.17
2023-05-03T20:14:36.418Z,16.16
2023-05-03T20:17:08.373Z,16.13
2023-05-03T20:19:41.457Z,16.07
2023-05-03T20:22:13.414Z,16.12
2023-05-03T20:24:46.933Z,16.07
2023-05-03T20:27:18.956Z,15.95
2023-05-03T20:29:52.146Z,15.91
2023-05-03T20:32:26.492Z,15.79
2023-05-03T20:34:59.707Z,15.83
2023-05-03T20:37:31.879Z,15.72
2023-05-03T20:40:06.117Z,15.67
2023-05-03T20:42:39.066Z,15.50
2023-05-03T20:45:11.915Z,15.50
2023-05-03T20:47:44.648Z,15.29
2023-05-03T20:50:17.042Z,15.24
2023-05-03T20:52:50.521Z,15.22
2023-05-03T20:55:23.107Z,15.13
2023-05-03T20:57:56.098Z,14.96
2023-05-03T21:00:28.849Z,15.03
2023-05-03T21:03:25.857Z,14.96
2023-05-03T21:05:58.180Z,14.87
2023-05-03T21:08:30.931Z,14.84
2023-05-03T21:11:04.167Z,14.76
2023-05-03T21:13:36.608Z,14.65
2023-05-03T21:16:09.277Z,14.62
2023-05-03T21:18:42.152Z,14.60
2023-05-03T21:21:14.597Z,14.42
2023-05-03T21:23:47.658Z,14.42
2023-05-03T21:26:19.744Z,14.36
2023-05-03T21:28:52.933Z,14.24
2023-05-03T21:31:25.297Z,14.30
2023-05-03T21:33:58.638Z,14.25
2023-05-03T21:36:32.561Z,14.27
2023-05-03T21:39:05.445Z,14.18
2023-05-03T21:41:38.457Z,14.07
2023-05-03T21:44:12.368Z,14.05
2023-05-03T21:46:44.763Z,14.14
2023-05-03T21:49:17.678Z,13.98
2023-05-03T21:51:49.563Z,13.94
2023-05-03T21:54:22.261Z,13.94
2023-05-03T21:56:54.152Z,14.51
2023-05-03T21:59:26.872Z,16.15
2023-05-03T22:01:59.480Z,16.46
2023-05-03T22:04:31.976Z,16.44
2023-05-03T22:07:04.755Z,16.07
2023-05-03T22:09:37.252Z,15.86
2023-05-03T22:12:22.719Z,15.76
2023-05-03T22:14:56.216Z,15.92
2023-05-03T22:17:29.221Z,15.98
2023-05-03T22:20:01.121Z,16.41
2023-05-03T22:22:34.473Z,16.55
2023-05-03T22:25:06.921Z,16.56
2023-05-03T22:27:39.666Z,16.12
2023-05-03T22:30:25.834Z,16.21
2023-05-03T22:33:01.684Z,16.16
2023-05-03T22:35:33.977Z,15.82
2023-05-03T22:38:28.254Z,16.14
2023-05-03T22:41:00.985Z,15.36
2023-05-03T22:43:33.936Z,15.60
2023-05-03T22:46:06.172Z,16.02
2023-05-03T22:48:39.046Z,15.57
2023-05-03T22:51:11.674Z,15.83
2023-05-03T22:53:44.015Z,16.28
2023-05-03T22:56:17.009Z,15.95
2023-05-03T22:58:49.807Z,15.88
2023-05-03T23:01:22.210Z,15.06
2023-05-03T23:03:54.478Z,15.59
2023-05-03T23:06:27.282Z,15.86
2023-05-03T23:09:01.005Z,15.18
2023-05-03T23:11:33.766Z,15.29
2023-05-03T23:14:06.482Z,15.40
2023-05-03T23:16:39.318Z,15.98
2023-05-03T23:19:11.828Z,15.52
2023-05-03T23:21:44.624Z,16.10
2023-05-03T23:24:17.401Z,15.59
2023-05-03T23:26:50.573Z,14.84
2023-05-03T23:29:23.366Z,15.12
2023-05-03T23:31:56.802Z,14.78
2023-05-03T23:34:29.294Z,14.99
2023-05-03T23:37:02.045Z,14.77
2023-05-03T23:39:34.688Z,15.11
2023-05-03T23:42:07.038Z,15.05
2023-05-03T23:44:53.816Z,15.41
2023-05-03T23:47:27.992Z,15.04
2023-05-03T23:49:59.988Z,15.11
2023-05-03T23:52:32.803Z,14.85
2023-05-03T23:55:06.323Z,15.00
2023-05-03T23:57:38.752Z,15.07
